createdAt,value
2023-11-23T00:01:28.943Z,13.40
2023-11-23T00:03:56.970Z,13.83
2023-11-23T00:06:24.848Z,13.87
2023-11-23T00:08:52.528Z,12.67
2023-11-23T00:11:20.218Z,13.73
2023-11-23T00:13:49.999Z,13.07
2023-11-23T00:16:17.748Z,12.67
2023-11-23T00:18:45.800Z,13.93
2023-11-23T00:21:13.848Z,13.80
2023-11-23T00:23:42.018Z,14.77
2023-11-23T00:26:09.973Z,14.60
2023-11-23T00:28:37.744Z,15.23
2023-11-23T00:31:06.243Z,14.20
2023-11-23T00:33:34.180Z,14.50
2023-11-23T00:36:05.149Z,14.43
2023-11-23T00:38:34.391Z,14.67
2023-11-23T00:41:02.264Z,14.97
2023-11-23T00:43:29.960Z,13.67
2023-11-23T00:45:57.633Z,14.03
2023-11-23T00:48:25.405Z,14.20
2023-11-23T00:50:53.317Z,15.00
2023-11-23T00:53:21.956Z,14.63
2023-11-23T00:55:49.680Z,14.57
2023-11-23T00:58:17.559Z,14.90
2023-11-23T01:00:45.287Z,14.93
2023-11-23T01:03:13.303Z,14.70
2023-11-23T01:05:41.123Z,14.60
2023-11-23T01:08:08.845Z,15.37
2023-11-23T01:10:36.522Z,13.73
2023-11-23T01:13:04.234Z,15.40
2023-11-23T01:15:31.978Z,14.20
2023-11-23T01:18:00.216Z,15.20
2023-11-23T01:20:27.958Z,14.33
2023-11-23T01:22:55.622Z,15.40
2023-11-23T01:25:23.312Z,15.50
2023-11-23T01:27:50.994Z,15.73
2023-11-23T01:30:19.065Z,16.00
2023-11-23T01:32:47.409Z,16.43
2023-11-23T01:35:15.561Z,15.80
2023-11-23T01:37:43.239Z,15.27
2023-11-23T01:40:12.817Z,16.30
2023-11-23T01:42:40.539Z,15.47
2023-11-23T01:45:10.177Z,15.00
2023-11-23T01:47:40.684Z,16.50
2023-11-23T01:50:11.514Z,15.13
2023-11-23T01:52:41.293Z,15.70
2023-11-23T01:55:10.286Z,15.93
2023-11-23T01:57:40.090Z,16.60
2023-11-23T02:00:10.421Z,16.33
2023-11-23T02:02:38.399Z,16.27
2023-11-23T02:05:07.239Z,14.93
2023-11-23T02:07:34.916Z,16.40
2023-11-23T02:10:04.161Z,16.30
2023-11-23T02:12:31.976Z,17.57
2023-11-23T02:15:01.005Z,15.33
2023-11-23T02:17:31.089Z,16.93
2023-11-23T02:19:59.022Z,18.07
2023-11-23T02:22:27.287Z,16.23
2023-11-23T02:24:55.005Z,16.37
2023-11-23T02:27:23.146Z,16.77
2023-11-23T02:29:50.813Z,16.00
2023-11-23T02:32:18.671Z,16.37
2023-11-23T02:34:47.278Z,17.43
2023-11-23T02:37:15.175Z,16.60
2023-11-23T02:39:44.157Z,16.53
2023-11-23T02:42:12.208Z,16.23
2023-11-23T02:44:39.986Z,18.37
2023-11-23T02:47:08.045Z,16.17
2023-11-23T02:49:35.681Z,17.17
2023-11-23T02:52:03.955Z,16.87
2023-11-23T02:54:31.669Z,17.33
2023-11-23T02:56:59.494Z,17.07
2023-11-23T02:59:27.344Z,16.63
2023-11-23T03:01:55.131Z,17.10
2023-11-23T03:04:23.025Z,16.90
2023-11-23T03:06:50.796Z,16.33
2023-11-23T03:09:19.871Z,17.03
2023-11-23T03:11:47.610Z,17.23
2023-11-23T03:14:15.392Z,17.43
2023-11-23T03:16:44.769Z,18.80
2023-11-23T03:19:12.520Z,17.07
2023-11-23T03:21:40.327Z,17.60
2023-11-23T03:24:09.862Z,17.47
2023-11-23T03:26:37.682Z,18.27
2023-11-23T03:29:05.386Z,17.43
2023-11-23T03:31:33.055Z,18.13
2023-11-23T03:34:00.708Z,19.33
2023-11-23T03:36:28.417Z,18.20
2023-11-23T03:38:56.119Z,18.20
2023-11-23T03:41:23.794Z,16.40
2023-11-23T03:43:52.019Z,17.10
2023-11-23T03:46:20.369Z,17.13
2023-11-23T03:48:48.155Z,18.90
2023-11-23T03:51:16.113Z,19.03
2023-11-23T03:53:43.952Z,18.20
2023-11-23T03:56:15.560Z,17.90
2023-11-23T03:58:43.334Z,18.87
2023-11-23T04:01:11.445Z,18.20
2023-11-23T04:03:44.712Z,18.43
2023-11-23T04:06:12.559Z,19.90
2023-11-23T04:08:41.260Z,19.57
2023-11-23T04:11:10.703Z,19.00
2023-11-23T04:13:38.516Z,19.43
2023-11-23T04:16:07.022Z,20.20
2023-11-23T04:18:34.731Z,20.23
2023-11-23T04:21:02.763Z,21.03
2023-11-23T04:23:30.514Z,22.30
2023-11-23T04:25:58.186Z,22.33
2023-11-23T04:28:26.315Z,22.47
2023-11-23T04:30:54.305Z,23.00
2023-11-23T04:33:23.350Z,22.40
2023-11-23T04:35:51.187Z,23.00
2023-11-23T04:38:18.910Z,23.93
2023-11-23T04:40:46.655Z,23.77
2023-11-23T04:43:14.735Z,24.37
2023-11-23T04:45:42.656Z,23.63
2023-11-23T04:48:10.805Z,24.67
2023-11-23T04:50:38.627Z,25.10
2023-11-23T04:53:06.313Z,26.00
2023-11-23T04:55:33.976Z,23.93
2023-11-23T04:58:02.386Z,25.50
2023-11-23T05:00:30.900Z,26.77
2023-11-23T05:02:58.731Z,25.80
2023-11-23T05:05:26.863Z,27.07
2023-11-23T05:07:54.545Z,27.30
2023-11-23T05:10:22.402Z,27.47
2023-11-23T05:12:52.333Z,25.17
2023-11-23T05:15:20.226Z,26.33
2023-11-23T05:17:48.090Z,28.00
2023-11-23T05:20:17.253Z,27.47
2023-11-23T05:22:46.228Z,26.20
2023-11-23T05:25:15.234Z,26.10
2023-11-23T05:27:42.939Z,26.13
2023-11-23T05:30:12.598Z,26.03
2023-11-23T05:32:40.350Z,26.47
2023-11-23T05:35:10.244Z,26.40
2023-11-23T05:37:37.925Z,26.80
2023-11-23T05:40:09.450Z,26.00
2023-11-23T05:42:37.166Z,24.97
2023-11-23T05:45:06.490Z,26.93
2023-11-23T05:47:34.442Z,26.23
2023-11-23T05:50:03.455Z,26.97
2023-11-23T05:52:31.428Z,27.00
2023-11-23T05:54:59.531Z,24.97
2023-11-23T05:57:27.796Z,26.07
2023-11-23T05:59:55.520Z,26.07
2023-11-23T06:02:23.317Z,26.23
2023-11-23T06:04:51.187Z,25.20
2023-11-23T06:07:18.986Z,26.13
2023-11-23T06:09:46.691Z,26.03
2023-11-23T06:12:14.484Z,25.00
2023-11-23T06:14:42.176Z,24.70
2023-11-23T06:17:10.886Z,25.73
2023-11-23T06:19:38.868Z,25.10
2023-11-23T06:22:06.567Z,25.57
2023-11-23T06:24:34.252Z,27.20
2023-11-23T06:27:02.369Z,25.93
2023-11-23T06:29:30.253Z,26.17
2023-11-23T06:32:00.568Z,26.10
2023-11-23T06:34:29.696Z,25.73
2023-11-23T06:36:57.348Z,26.03
2023-11-23T06:39:25.488Z,26.10
2023-11-23T06:41:53.687Z,26.73
2023-11-23T06:44:21.754Z,25.93
2023-11-23T06:46:49.489Z,26.30
2023-11-23T06:49:17.262Z,26.67
2023-11-23T06:51:45.001Z,26.67
2023-11-23T06:54:12.809Z,27.37
2023-11-23T06:56:40.505Z,25.70
2023-11-23T06:59:08.845Z,26.07
2023-11-23T07:01:36.629Z,25.20
2023-11-23T07:04:05.148Z,26.20
2023-11-23T07:06:33.067Z,25.37
2023-11-23T07:09:00.945Z,25.73
2023-11-23T07:11:28.981Z,23.03
2023-11-23T07:13:56.666Z,23.63
2023-11-23T07:16:24.444Z,24.40
2023-11-23T07:18:52.245Z,24.07
2023-11-23T07:21:20.345Z,24.73
2023-11-23T07:23:48.063Z,23.70
2023-11-23T07:26:15.864Z,23.97
2023-11-23T07:28:43.937Z,23.67
2023-11-23T07:31:11.672Z,23.77
2023-11-23T07:33:39.887Z,22.30
2023-11-23T07:36:10.194Z,21.73
2023-11-23T07:38:37.960Z,21.80
2023-11-23T07:41:07.060Z,21.73
2023-11-23T07:43:34.779Z,20.63
2023-11-23T07:46:02.847Z,22.10
2023-11-23T07:48:31.585Z,20.57
2023-11-23T07:50:59.311Z,19.10
2023-11-23T07:53:30.802Z,20.67
2023-11-23T07:55:58.994Z,20.17
2023-11-23T07:58:26.838Z,20.40
2023-11-23T08:00:54.989Z,21.00
2023-11-23T08:03:22.862Z,19.60
2023-11-23T08:05:50.840Z,18.90
2023-11-23T08:08:18.677Z,20.43
2023-11-23T08:10:47.020Z,19.47
2023-11-23T08:13:16.568Z,19.20
2023-11-23T08:15:44.322Z,18.23
2023-11-23T08:18:12.225Z,18.73
2023-11-23T08:20:39.944Z,18.77
2023-11-23T08:23:09.484Z,18.43
2023-11-23T08:25:38.150Z,18.53
2023-11-23T08:28:05.875Z,19.17
2023-11-23T08:30:33.676Z,17.57
2023-11-23T08:33:01.565Z,18.17
2023-11-23T08:35:29.604Z,17.67
2023-11-23T08:37:58.122Z,18.10
2023-11-23T08:40:26.094Z,17.53
2023-11-23T08:42:54.052Z,17.87
2023-11-23T08:45:21.842Z,17.70
2023-11-23T08:47:49.795Z,16.70
2023-11-23T08:50:17.987Z,16.60
2023-11-23T08:52:45.728Z,16.17
2023-11-23T08:55:14.197Z,16.63
2023-11-23T08:57:52.987Z,17.50
2023-11-23T09:00:24.502Z,15.77
2023-11-23T09:02:53.948Z,16.27
2023-11-23T09:05:22.385Z,15.17
2023-11-23T09:07:50.367Z,14.63
2023-11-23T09:10:18.272Z,14.63
2023-11-23T09:12:46.031Z,14.67
2023-11-23T09:15:14.098Z,14.67
2023-11-23T09:17:42.014Z,14.23
2023-11-23T09:20:13.471Z,14.53
2023-11-23T09:22:43.364Z,14.30
2023-11-23T09:25:11.977Z,13.10
2023-11-23T09:27:39.863Z,14.50
2023-11-23T09:30:09.595Z,14.23
2023-11-23T09:32:38.577Z,14.30
2023-11-23T09:35:10.625Z,14.23
2023-11-23T09:37:38.897Z,14.10
2023-11-23T09:40:17.161Z,15.10
2023-11-23T09:42:47.086Z,14.27
2023-11-23T09:45:22.297Z,14.47
2023-11-23T09:47:54.443Z,13.23
2023-11-23T09:50:22.260Z,13.63
2023-11-23T09:52:51.706Z,13.80
2023-11-23T09:55:21.669Z,13.50
2023-11-23T09:57:49.912Z,14.30
2023-11-23T10:00:21.645Z,15.87
2023-11-23T10:02:50.454Z,15.13
2023-11-23T10:05:18.795Z,14.80
2023-11-23T10:07:47.680Z,16.47
2023-11-23T10:10:15.719Z,15.40
2023-11-23T10:12:45.318Z,14.40
2023-11-23T10:15:13.607Z,14.87
2023-11-23T10:17:42.613Z,14.43
2023-11-23T10:20:15.662Z,13.30
2023-11-23T10:26:24.197Z,14.23
2023-11-23T10:28:51.882Z,14.20
2023-11-23T10:31:20.394Z,14.03
2023-11-23T10:33:48.972Z,13.80
2023-11-23T10:36:18.500Z,14.37
2023-11-23T10:38:47.424Z,13.63
2023-11-23T10:41:16.871Z,12.83
2023-11-23T10:43:48.937Z,13.40
2023-11-23T10:46:19.260Z,12.97
2023-11-23T10:48:50.584Z,12.90
2023-11-23T10:51:22.284Z,12.47
2023-11-23T10:53:50.541Z,13.13
2023-11-23T10:56:22.412Z,12.47
2023-11-23T10:58:54.645Z,12.17
2023-11-23T11:01:26.646Z,12.27
2023-11-23T11:03:56.322Z,12.53
2023-11-23T11:06:24.216Z,12.40
2023-11-23T11:08:52.591Z,12.97
2023-11-23T11:11:23.219Z,12.97
2023-11-23T11:13:59.136Z,11.87
2023-11-23T11:16:34.928Z,12.07
2023-11-23T11:19:06.972Z,11.97
2023-11-23T11:21:44.485Z,13.40
2023-11-23T11:24:19.450Z,11.23
2023-11-23T11:26:47.742Z,11.47
2023-11-23T11:29:17.494Z,12.13
2023-11-23T11:31:48.845Z,11.80
2023-11-23T11:34:18.101Z,11.83
2023-11-23T11:36:50.653Z,11.17
2023-11-23T11:39:18.545Z,10.97
2023-11-23T11:41:49.236Z,10.40
2023-11-23T11:44:17.288Z,11.47
2023-11-23T11:46:45.192Z,11.23
2023-11-23T11:49:13.173Z,11.67
2023-11-23T11:51:43.040Z,11.53
2023-11-23T11:54:10.937Z,11.50
2023-11-23T11:56:39.493Z,11.60
2023-11-23T11:59:08.509Z,11.47
2023-11-23T12:01:36.341Z,11.30
2023-11-23T12:04:04.791Z,11.10
2023-11-23T12:06:35.793Z,12.13
2023-11-23T12:09:04.750Z,11.10
2023-11-23T12:11:34.176Z,11.73
2023-11-23T12:14:02.972Z,11.40
2023-11-23T12:16:34.586Z,11.53
2023-11-23T12:19:02.426Z,11.97
2023-11-23T12:21:32.242Z,10.97
2023-11-23T12:24:01.067Z,11.73
2023-11-23T12:26:28.891Z,11.87
2023-11-23T12:28:56.693Z,11.27
2023-11-23T12:31:24.410Z,11.73
2023-11-23T12:33:52.144Z,11.67
2023-11-23T12:36:19.986Z,11.37
2023-11-23T12:38:47.743Z,12.07
2023-11-23T12:41:15.451Z,11.93
2023-11-23T12:43:43.352Z,10.60
2023-11-23T12:46:11.446Z,12.13
2023-11-23T12:48:39.462Z,10.97
2023-11-23T12:51:08.200Z,11.00
2023-11-23T12:53:35.871Z,11.37
2023-11-23T12:56:04.748Z,10.90
2023-11-23T12:58:32.574Z,11.77
2023-11-23T13:01:00.987Z,11.13
2023-11-23T13:03:28.703Z,10.97
2023-11-23T13:05:56.563Z,11.23
2023-11-23T13:08:24.801Z,12.17
2023-11-23T13:10:52.679Z,10.90
2023-11-23T13:13:20.467Z,11.60
2023-11-23T13:15:48.468Z,10.80
2023-11-23T13:18:16.261Z,10.93
2023-11-23T13:20:46.007Z,11.57
2023-11-23T13:23:15.249Z,10.50
2023-11-23T13:25:45.398Z,10.57
2023-11-23T13:28:13.896Z,10.10
2023-11-23T13:30:41.675Z,9.60
2023-11-23T13:33:15.907Z,10.33
2023-11-23T13:35:43.774Z,9.60
2023-11-23T13:38:11.489Z,10.53
2023-11-23T13:40:40.962Z,9.27
2023-11-23T13:43:09.012Z,8.93
2023-11-23T13:45:37.289Z,8.73
2023-11-23T13:48:07.718Z,8.30
2023-11-23T13:50:42.049Z,8.37
2023-11-23T13:53:11.486Z,8.10
2023-11-23T13:55:39.757Z,7.37
2023-11-23T13:58:07.690Z,7.57
2023-11-23T14:00:35.444Z,7.20
2023-11-23T14:03:04.632Z,7.13
2023-11-23T14:05:32.884Z,7.73
2023-11-23T14:08:00.555Z,6.90
2023-11-23T14:10:28.289Z,6.73
2023-11-23T14:12:57.466Z,7.00
2023-11-23T14:15:26.159Z,6.47
2023-11-23T14:17:54.161Z,6.57
2023-11-23T14:20:24.274Z,6.03
2023-11-23T14:22:52.078Z,7.00
2023-11-23T14:25:21.099Z,6.50
2023-11-23T14:27:49.475Z,6.23
2023-11-23T14:30:18.164Z,6.20
2023-11-23T14:32:47.061Z,6.17
2023-11-23T14:35:15.542Z,5.43
2023-11-23T14:37:44.049Z,5.90
2023-11-23T14:40:16.651Z,5.30
2023-11-23T14:42:55.684Z,4.97
2023-11-23T14:45:26.942Z,5.03
2023-11-23T14:47:56.372Z,5.60
2023-11-23T14:50:28.746Z,4.70
2023-11-23T14:52:56.788Z,4.53
2023-11-23T14:55:24.510Z,4.30
2023-11-23T14:57:52.429Z,4.30
2023-11-23T15:00:23.961Z,4.20
2023-11-23T15:02:52.719Z,3.70
2023-11-23T15:05:20.678Z,3.60
2023-11-23T15:07:48.417Z,3.53
2023-11-23T15:10:19.401Z,3.40
2023-11-23T15:12:51.770Z,3.27
2023-11-23T15:15:20.303Z,3.57
2023-11-23T15:17:49.357Z,3.80
2023-11-23T15:20:19.160Z,3.27
2023-11-23T15:22:46.998Z,3.53
2023-11-23T15:25:15.169Z,3.73
2023-11-23T15:27:44.433Z,3.50
2023-11-23T15:30:13.615Z,3.30
2023-11-23T15:32:42.807Z,4.47
2023-11-23T15:35:11.421Z,3.80
2023-11-23T15:37:39.162Z,3.60
2023-11-23T15:40:17.124Z,3.73
2023-11-23T15:42:46.333Z,3.60
2023-11-23T15:45:15.434Z,3.60
2023-11-23T15:47:45.581Z,3.53
2023-11-23T15:50:13.433Z,3.60
2023-11-23T15:52:42.042Z,4.00
2023-11-23T15:55:11.901Z,3.60
2023-11-23T15:57:40.142Z,3.90
2023-11-23T16:00:12.082Z,4.23
2023-11-23T16:02:40.903Z,3.90
2023-11-23T16:05:11.435Z,3.63
2023-11-23T16:07:39.301Z,3.60
2023-11-23T16:10:09.578Z,3.73
2023-11-23T16:12:37.342Z,3.50
2023-11-23T16:15:07.354Z,3.93
2023-11-23T16:17:35.107Z,4.00
2023-11-23T16:20:03.284Z,3.93
2023-11-23T16:22:31.044Z,5.03
2023-11-23T16:24:58.740Z,4.43
2023-11-23T16:27:26.514Z,4.60
2023-11-23T16:29:54.259Z,4.53
2023-11-23T16:32:23.137Z,4.30
2023-11-23T16:34:51.175Z,4.30
2023-11-23T16:37:19.285Z,4.20
2023-11-23T16:39:47.617Z,4.73
2023-11-23T16:42:15.373Z,4.47
2023-11-23T16:44:43.181Z,4.73
2023-11-23T16:47:11.496Z,5.00
2023-11-23T16:49:39.339Z,4.67
2023-11-23T16:52:08.812Z,4.43
2023-11-23T16:54:38.593Z,5.10
2023-11-23T16:57:08.354Z,4.80
2023-11-23T16:59:36.801Z,5.17
2023-11-23T17:02:05.599Z,5.33
2023-11-23T17:04:33.670Z,4.57
2023-11-23T17:07:01.508Z,4.43
2023-11-23T17:09:29.346Z,4.87
2023-11-23T17:11:57.469Z,5.23
2023-11-23T17:14:27.122Z,5.40
2023-11-23T17:16:54.909Z,5.27
2023-11-23T17:19:24.541Z,5.40
2023-11-23T17:21:57.132Z,4.93
2023-11-23T17:24:25.002Z,5.43
2023-11-23T17:26:53.183Z,5.63
2023-11-23T17:29:21.363Z,5.07
2023-11-23T17:31:54.915Z,5.63
2023-11-23T17:34:23.169Z,5.50
2023-11-23T17:36:51.086Z,5.97
2023-11-23T17:39:19.114Z,6.80
2023-11-23T17:41:47.006Z,6.27
2023-11-23T17:44:15.075Z,6.40
2023-11-23T17:46:44.020Z,6.53
2023-11-23T17:49:14.246Z,6.80
2023-11-23T17:51:43.715Z,7.00
2023-11-23T17:54:12.032Z,6.60
2023-11-23T17:56:40.400Z,6.93
2023-11-23T17:59:24.879Z,6.67
2023-11-23T18:02:00.502Z,7.23
2023-11-23T18:04:28.765Z,7.13
2023-11-23T18:06:56.642Z,6.73
2023-11-23T18:09:24.614Z,6.50
2023-11-23T18:11:52.486Z,7.33
2023-11-23T18:14:20.911Z,6.57
2023-11-23T18:16:48.805Z,6.60
2023-11-23T18:19:16.570Z,6.50
2023-11-23T18:21:44.686Z,6.00
2023-11-23T18:24:12.632Z,6.10
2023-11-23T18:26:40.765Z,6.80
2023-11-23T18:29:08.601Z,5.87
2023-11-23T18:31:36.872Z,5.67
2023-11-23T18:34:04.969Z,5.03
2023-11-23T18:36:33.554Z,5.67
2023-11-23T18:39:01.547Z,5.27
2023-11-23T18:41:29.510Z,5.00
2023-11-23T18:43:57.454Z,5.70
2023-11-23T18:46:25.336Z,4.43
2023-11-23T18:48:53.264Z,5.07
2023-11-23T18:51:21.488Z,5.03
2023-11-23T18:53:49.447Z,4.97
2023-11-23T18:56:18.828Z,5.10
2023-11-23T18:58:47.461Z,4.70
2023-11-23T19:01:16.078Z,5.00
2023-11-23T19:03:45.339Z,5.37
2023-11-23T19:06:13.316Z,5.63
2023-11-23T19:08:42.090Z,5.67
2023-11-23T19:11:14.037Z,5.70
2023-11-23T19:13:42.011Z,4.97
2023-11-23T19:16:10.574Z,5.23
2023-11-23T19:18:42.318Z,5.27
2023-11-23T19:21:13.415Z,4.90
2023-11-23T19:23:42.767Z,5.13
2023-11-23T19:26:12.968Z,5.07
2023-11-23T19:28:46.009Z,5.03
2023-11-23T19:31:15.692Z,5.40
2023-11-23T19:33:44.583Z,5.90
2023-11-23T19:36:15.230Z,5.20
2023-11-23T19:38:44.096Z,5.47
2023-11-23T19:41:13.510Z,5.17
2023-11-23T19:43:42.410Z,4.80
2023-11-23T19:46:13.193Z,4.13
2023-11-23T19:48:42.631Z,4.47
2023-11-23T19:51:11.318Z,4.60
2023-11-23T19:53:41.941Z,4.17
2023-11-23T19:56:09.870Z,4.20
2023-11-23T19:58:37.760Z,4.07
2023-11-23T20:01:06.042Z,3.63
2023-11-23T20:03:34.292Z,3.50
2023-11-23T20:06:03.377Z,3.60
2023-11-23T20:08:32.738Z,3.37
2023-11-23T20:11:01.247Z,3.27
2023-11-23T20:13:29.215Z,2.10
2023-11-23T20:15:57.938Z,1.77
2023-11-23T20:18:26.013Z,1.73
2023-11-23T20:20:54.271Z,2.10
2023-11-23T20:23:22.138Z,1.70
2023-11-23T20:25:49.921Z,1.90
2023-11-23T20:28:18.042Z,1.70
2023-11-23T20:30:47.198Z,1.60
2023-11-23T20:33:17.680Z,1.60
2023-11-23T20:35:47.154Z,1.40
2023-11-23T20:38:15.116Z,1.80
2023-11-23T20:40:45.341Z,1.90
2023-11-23T20:43:14.458Z,3.10
2023-11-23T20:45:42.565Z,2.00
2023-11-23T20:48:10.616Z,1.97
2023-11-23T20:50:39.574Z,1.80
2023-11-23T20:53:08.095Z,2.03
2023-11-23T20:55:37.374Z,1.73
2023-11-23T20:58:06.453Z,1.90
2023-11-23T21:00:35.013Z,1.73
2023-11-23T21:03:05.850Z,2.10
2023-11-23T21:05:35.376Z,1.93
2023-11-23T21:08:04.450Z,2.20
2023-11-23T21:10:33.409Z,2.23
2023-11-23T21:13:01.504Z,1.83
2023-11-23T21:15:29.495Z,2.23
2023-11-23T21:17:57.332Z,1.97
2023-11-23T21:20:25.476Z,2.10
2023-11-23T21:22:53.432Z,1.70
2023-11-23T21:25:21.394Z,2.40
2023-11-23T21:27:50.477Z,1.90
2023-11-23T21:30:19.505Z,2.40
2023-11-23T21:32:48.039Z,2.30
2023-11-23T21:35:16.749Z,2.03
2023-11-23T21:37:48.317Z,2.40
2023-11-23T21:40:17.370Z,2.30
2023-11-23T21:42:45.221Z,2.40
2023-11-23T21:45:13.370Z,2.50
2023-11-23T21:47:41.336Z,2.40
2023-11-23T21:50:11.214Z,2.40
2023-11-23T21:52:39.776Z,2.50
2023-11-23T21:55:08.984Z,2.43
2023-11-23T21:57:36.749Z,2.60
2023-11-23T22:00:08.768Z,3.10
2023-11-23T22:02:36.596Z,3.17
2023-11-23T22:05:05.628Z,2.53
2023-11-23T22:07:33.341Z,2.83
2023-11-23T22:10:01.058Z,2.93
2023-11-23T22:12:29.434Z,2.30
2023-11-23T22:14:57.150Z,2.30
2023-11-23T22:17:26.314Z,2.93
2023-11-23T22:19:55.291Z,2.73
2023-11-23T22:22:24.968Z,2.47
2023-11-23T22:24:53.404Z,3.33
2023-11-23T22:27:23.253Z,4.40
2023-11-23T22:29:52.055Z,2.93
2023-11-23T22:32:20.507Z,4.20
2023-11-23T22:34:49.608Z,3.17
2023-11-23T22:37:19.336Z,3.07
2023-11-23T22:39:48.417Z,2.90
2023-11-23T22:42:17.783Z,3.00
2023-11-23T22:44:46.735Z,2.83
2023-11-23T22:47:14.526Z,3.73
2023-11-23T22:49:42.206Z,3.20
2023-11-23T22:52:09.911Z,3.23
2023-11-23T22:54:38.411Z,2.80
2023-11-23T22:57:06.494Z,2.90
2023-11-23T22:59:34.223Z,2.40
2023-11-23T23:02:02.767Z,2.03
2023-11-23T23:04:31.861Z,2.57
2023-11-23T23:06:59.638Z,2.13
2023-11-23T23:09:28.066Z,2.43
2023-11-23T23:11:56.501Z,2.13
2023-11-23T23:14:24.575Z,2.30
2023-11-23T23:16:52.271Z,2.07
2023-11-23T23:19:20.038Z,2.10
2023-11-23T23:21:47.736Z,2.20
2023-11-23T23:24:15.690Z,2.03
2023-11-23T23:26:43.383Z,2.10
2023-11-23T23:29:12.358Z,1.90
2023-11-23T23:31:42.118Z,2.33
2023-11-23T23:34:10.768Z,1.97
2023-11-23T23:36:38.528Z,1.70
2023-11-23T23:39:06.329Z,1.53
2023-11-23T23:41:34.011Z,2.70
2023-11-23T23:44:03.725Z,2.13
2023-11-23T23:46:31.464Z,1.93
2023-11-23T23:49:01.614Z,2.27
2023-11-23T23:51:29.633Z,2.23
2023-11-23T23:53:57.306Z,1.90
2023-11-23T23:56:24.964Z,2.07
2023-11-23T23:58:53.413Z,2.07
